sensor_id;sensor_type;location;lat;lon;timestamp;pressure;altitude;pressure_sealevel;temperature;humidity
65054;BME280;51639;47.828;35.038;2024-02-04T00:13:48;99102.81;;;9.53;100.00
65054;BME280;51639;47.828;35.038;2024-02-04T00:28:50;99095.56;;;9.50;100.00
65054;BME280;51639;47.828;35.038;2024-02-04T00:43:52;99089.38;;;9.50;100.00
65054;BME280;51639;47.828;35.038;2024-02-04T00:58:54;99091.66;;;9.51;100.00
65054;BME280;51639;47.828;35.038;2024-02-04T01:13:56;99094.69;;;9.53;100.00
65054;BME280;51639;47.828;35.038;2024-02-04T01:28:58;99087.31;;;9.54;100.00
65054;BME280;51639;47.828;35.038;2024-02-04T01:44:00;99085.81;;;9.53;100.00
65054;BME280;51639;47.828;35.038;2024-02-04T01:59:03;99079.19;;;9.54;100.00
65054;BME280;51639;47.828;35.038;2024-02-04T02:14:06;99100.44;;;9.68;100.00
65054;BME280;51639;47.828;35.038;2024-02-04T02:29:12;99092.19;;;9.59;100.00
65054;BME280;51639;47.828;35.038;2024-02-04T02:44:14;99098.47;;;9.56;100.00
65054;BME280;51639;47.828;35.038;2024-02-04T02:59:17;99096.50;;;9.69;100.00
65054;BME280;51639;47.828;35.038;2024-02-04T03:14:20;99111.03;;;9.75;100.00
65054;BME280;51639;47.828;35.038;2024-02-04T03:29:22;99102.50;;;9.64;100.00
65054;BME280;51639;47.828;35.038;2024-02-04T03:44:24;99112.09;;;9.90;100.00
65054;BME280;51639;47.828;35.038;2024-02-04T03:59:26;99116.56;;;9.84;100.00
65054;BME280;51639;47.828;35.038;2024-02-04T04:14:28;99113.94;;;9.81;100.00
65054;BME280;51639;47.828;35.038;2024-02-04T04:29:30;99130.00;;;9.75;100.00
65054;BME280;51639;47.828;35.038;2024-02-04T04:44:32;99138.47;;;9.77;100.00
65054;BME280;51639;47.828;35.038;2024-02-04T04:59:34;99144.75;;;9.87;100.00
65054;BME280;51639;47.828;35.038;2024-02-04T05:14:37;99161.34;;;9.76;100.00
65054;BME280;51639;47.828;35.038;2024-02-04T05:29:39;99159.28;;;9.80;100.00
65054;BME280;51639;47.828;35.038;2024-02-04T05:44:41;99162.41;;;9.91;100.00
65054;BME280;51639;47.828;35.038;2024-02-04T05:59:44;99153.28;;;9.98;100.00
65054;BME280;51639;47.828;35.038;2024-02-04T06:14:46;99154.38;;;10.01;100.00
65054;BME280;51639;47.828;35.038;2024-02-04T06:29:48;99164.34;;;10.04;100.00
65054;BME280;51639;47.828;35.038;2024-02-04T06:44:50;99165.41;;;10.19;100.00
65054;BME280;51639;47.828;35.038;2024-02-04T06:59:52;99172.25;;;10.23;100.00
65054;BME280;51639;47.828;35.038;2024-02-04T07:14:55;99159.53;;;10.33;100.00
65054;BME280;51639;47.828;35.038;2024-02-04T07:29:57;99176.44;;;10.37;100.00
65054;BME280;51639;47.828;35.038;2024-02-04T07:44:59;99172.91;;;10.49;100.00
65054;BME280;51639;47.828;35.038;2024-02-04T08:00:03;99169.47;;;10.92;100.00
65054;BME280;51639;47.828;35.038;2024-02-04T08:15:07;99181.78;;;11.28;100.00
65054;BME280;51639;47.828;35.038;2024-02-04T08:30:09;99163.34;;;11.63;100.00
65054;BME280;51639;47.828;35.038;2024-02-04T08:45:13;99197.16;;;16.50;100.00
65054;BME280;51639;47.828;35.038;2024-02-04T09:00:16;99210.19;;;17.84;80.99
65054;BME280;51639;47.828;35.038;2024-02-04T09:15:18;99199.91;;;18.22;78.36
65054;BME280;51639;47.828;35.038;2024-02-04T09:30:20;99192.00;;;19.33;93.52
65054;BME280;51639;47.828;35.038;2024-02-04T09:45:23;99169.03;;;17.21;88.30
65054;BME280;51639;47.828;35.038;2024-02-04T10:00:27;99162.66;;;18.91;67.64
65054;BME280;51639;47.828;35.038;2024-02-04T10:15:31;99153.94;;;17.37;81.04
65054;BME280;51639;47.828;35.038;2024-02-04T10:30:33;99158.03;;;15.24;86.17
65054;BME280;51639;47.828;35.038;2024-02-04T10:45:38;99161.88;;;14.11;100.00
65054;BME280;51639;47.828;35.038;2024-02-04T11:00:43;99153.16;;;14.45;100.00
65054;BME280;51639;47.828;35.038;2024-02-04T11:15:46;99138.97;;;14.32;100.00
65054;BME280;51639;47.828;35.038;2024-02-04T11:30:49;99119.19;;;14.22;99.51
65054;BME280;51639;47.828;35.038;2024-02-04T11:45:52;99098.94;;;14.67;96.19
65054;BME280;51639;47.828;35.038;2024-02-04T12:00:58;99096.97;;;14.68;92.12
65054;BME280;51639;47.828;35.038;2024-02-04T12:16:01;99099.31;;;15.69;78.22
65054;BME280;51639;47.828;35.038;2024-02-04T12:31:04;99119.69;;;14.74;79.08
65054;BME280;51639;47.828;35.038;2024-02-04T12:46:07;99118.84;;;14.06;84.87
65054;BME280;51639;47.828;35.038;2024-02-04T13:01:10;99110.19;;;13.83;87.72
65054;BME280;51639;47.828;35.038;2024-02-04T13:16:12;99145.47;;;13.63;85.39
65054;BME280;51639;47.828;35.038;2024-02-04T13:31:15;99138.81;;;13.55;86.42
65054;BME280;51639;47.828;35.038;2024-02-04T13:46:17;99123.78;;;13.26;88.33
65054;BME280;51639;47.828;35.038;2024-02-04T14:01:19;99146.28;;;12.94;91.32
65054;BME280;51639;47.828;35.038;2024-02-04T14:16:24;99140.53;;;12.83;95.39
65054;BME280;51639;47.828;35.038;2024-02-04T14:31:27;99145.38;;;12.60;100.00
65054;BME280;51639;47.828;35.038;2024-02-04T14:46:29;99143.91;;;12.50;100.00
65054;BME280;51639;47.828;35.038;2024-02-04T15:01:31;99143.56;;;12.30;100.00
65054;BME280;51639;47.828;35.038;2024-02-04T15:16:35;99140.53;;;12.10;100.00
65054;BME280;51639;47.828;35.038;2024-02-04T15:31:41;99168.19;;;11.68;100.00
65054;BME280;51639;47.828;35.038;2024-02-04T15:46:45;99171.81;;;11.65;100.00
65054;BME280;51639;47.828;35.038;2024-02-04T16:01:51;99187.31;;;11.24;100.00
65054;BME280;51639;47.828;35.038;2024-02-04T16:17:02;99186.56;;;11.24;100.00
65054;BME280;51639;47.828;35.038;2024-02-04T16:32:08;99179.00;;;10.97;100.00
65054;BME280;51639;47.828;35.038;2024-02-04T16:47:10;99187.28;;;10.72;100.00
65054;BME280;51639;47.828;35.038;2024-02-04T17:02:12;99182.72;;;10.69;100.00
65054;BME280;51639;47.828;35.038;2024-02-04T17:17:15;99198.34;;;10.77;100.00
65054;BME280;51639;47.828;35.038;2024-02-04T17:32:23;99210.41;;;10.64;100.00
65054;BME280;51639;47.828;35.038;2024-02-04T17:47:28;99206.47;;;10.43;100.00
65054;BME280;51639;47.828;35.038;2024-02-04T18:02:36;99193.81;;;10.27;100.00
65054;BME280;51639;47.828;35.038;2024-02-04T18:17:48;99190.16;;;9.96;100.00
65054;BME280;51639;47.828;35.038;2024-02-04T18:32:54;99186.69;;;9.82;100.00
65054;BME280;51639;47.828;35.038;2024-02-04T18:47:57;99172.84;;;9.55;100.00
65054;BME280;51639;47.828;35.038;2024-02-04T19:03:00;99151.13;;;9.30;100.00
65054;BME280;51639;47.828;35.038;2024-02-04T19:18:03;99167.38;;;9.30;100.00
65054;BME280;51639;47.828;35.038;2024-02-04T19:33:05;99155.22;;;8.96;100.00
65054;BME280;51639;47.828;35.038;2024-02-04T19:48:08;99143.78;;;8.76;100.00
65054;BME280;51639;47.828;35.038;2024-02-04T20:03:11;99138.06;;;8.45;100.00
65054;BME280;51639;47.828;35.038;2024-02-04T20:18:15;99143.22;;;8.07;100.00
65054;BME280;51639;47.828;35.038;2024-02-04T20:33:17;99127.44;;;8.05;100.00
65054;BME280;51639;47.828;35.038;2024-02-04T20:48:19;99102.84;;;8.16;100.00
65054;BME280;51639;47.828;35.038;2024-02-04T21:03:22;99098.75;;;8.40;100.00
65054;BME280;51639;47.828;35.038;2024-02-04T21:18:24;99100.66;;;8.56;100.00
65054;BME280;51639;47.828;35.038;2024-02-04T21:33:26;99092.28;;;8.50;100.00
65054;BME280;51639;47.828;35.038;2024-02-04T21:48:29;99086.38;;;8.55;100.00
65054;BME280;51639;47.828;35.038;2024-02-04T22:03:31;99080.06;;;8.46;100.00
65054;BME280;51639;47.828;35.038;2024-02-04T22:18:35;99064.03;;;8.39;100.00
65054;BME280;51639;47.828;35.038;2024-02-04T22:33:37;99042.06;;;8.37;100.00
65054;BME280;51639;47.828;35.038;2024-02-04T22:48:39;99035.25;;;8.32;100.00
65054;BME280;51639;47.828;35.038;2024-02-04T23:03:41;99017.38;;;7.61;100.00
65054;BME280;51639;47.828;35.038;2024-02-04T23:18:44;99007.53;;;8.70;100.00
65054;BME280;51639;47.828;35.038;2024-02-04T23:33:46;99002.41;;;8.59;100.00
65054;BME280;51639;47.828;35.038;2024-02-04T23:48:48;98998.59;;;8.15;100.00
